sensor_id;sensor_type;location;lat;lon;timestamp;P1;durP1;ratioP1;P2;durP2;ratioP2
51618;SDS011;38518;53.164;5.430;2023-03-14T00:02:07;23.92;;;5.93;;
51618;SDS011;38518;53.164;5.430;2023-03-14T00:04:33;21.73;;;5.57;;
51618;SDS011;38518;53.164;5.430;2023-03-14T00:07:00;21.55;;;5.90;;
51618;SDS011;38518;53.164;5.430;2023-03-14T00:09:25;23.55;;;5.75;;
51618;SDS011;38518;53.164;5.430;2023-03-14T00:11:52;18.20;;;3.92;;
51618;SDS011;38518;53.164;5.430;2023-03-14T00:14:18;20.55;;;5.25;;
51618;SDS011;38518;53.164;5.430;2023-03-14T00:16:47;22.15;;;5.18;;
51618;SDS011;38518;53.164;5.430;2023-03-14T00:19:13;28.90;;;6.45;;
51618;SDS011;38518;53.164;5.430;2023-03-14T00:21:39;19.20;;;5.65;;
51618;SDS011;38518;53.164;5.430;2023-03-14T00:24:06;25.50;;;6.53;;
51618;SDS011;38518;53.164;5.430;2023-03-14T00:26:32;23.02;;;5.65;;
51618;SDS011;38518;53.164;5.430;2023-03-14T00:28:58;20.85;;;6.18;;
51618;SDS011;38518;53.164;5.430;2023-03-14T00:31:24;19.90;;;5.25;;
51618;SDS011;38518;53.164;5.430;2023-03-14T00:33:51;20.65;;;4.30;;
51618;SDS011;38518;53.164;5.430;2023-03-14T00:36:17;22.60;;;5.85;;
51618;SDS011;38518;53.164;5.430;2023-03-14T00:38:46;27.10;;;6.38;;
51618;SDS011;38518;53.164;5.430;2023-03-14T00:41:14;21.23;;;6.00;;
51618;SDS011;38518;53.164;5.430;2023-03-14T00:43:41;26.27;;;5.70;;
51618;SDS011;38518;53.164;5.430;2023-03-14T00:46:07;25.30;;;5.80;;
51618;SDS011;38518;53.164;5.430;2023-03-14T00:48:34;27.40;;;5.80;;
51618;SDS011;38518;53.164;5.430;2023-03-14T00:51:02;25.88;;;5.68;;
51618;SDS011;38518;53.164;5.430;2023-03-14T00:53:28;27.42;;;5.20;;
51618;SDS011;38518;53.164;5.430;2023-03-14T00:55:54;23.25;;;5.28;;
51618;SDS011;38518;53.164;5.430;2023-03-14T00:58:20;21.40;;;6.35;;
51618;SDS011;38518;53.164;5.430;2023-03-14T01:00:46;28.63;;;6.40;;
51618;SDS011;38518;53.164;5.430;2023-03-14T01:03:12;29.92;;;6.28;;
51618;SDS011;38518;53.164;5.430;2023-03-14T01:05:39;27.65;;;6.80;;
51618;SDS011;38518;53.164;5.430;2023-03-14T01:08:05;26.10;;;6.60;;
51618;SDS011;38518;53.164;5.430;2023-03-14T01:10:32;25.38;;;6.85;;
51618;SDS011;38518;53.164;5.430;2023-03-14T01:12:58;27.85;;;7.28;;
51618;SDS011;38518;53.164;5.430;2023-03-14T01:15:24;21.65;;;5.22;;
51618;SDS011;38518;53.164;5.430;2023-03-14T01:17:50;26.40;;;7.15;;
51618;SDS011;38518;53.164;5.430;2023-03-14T01:20:16;22.38;;;5.80;;
51618;SDS011;38518;53.164;5.430;2023-03-14T01:22:43;25.73;;;7.03;;
51618;SDS011;38518;53.164;5.430;2023-03-14T01:25:10;33.70;;;6.97;;
51618;SDS011;38518;53.164;5.430;2023-03-14T01:27:37;29.73;;;6.32;;
51618;SDS011;38518;53.164;5.430;2023-03-14T01:30:03;30.20;;;7.38;;
51618;SDS011;38518;53.164;5.430;2023-03-14T01:32:30;29.70;;;6.55;;
51618;SDS011;38518;53.164;5.430;2023-03-14T01:34:56;26.98;;;6.55;;
51618;SDS011;38518;53.164;5.430;2023-03-14T01:37:22;29.92;;;6.60;;
51618;SDS011;38518;53.164;5.430;2023-03-14T01:39:47;27.02;;;5.80;;
51618;SDS011;38518;53.164;5.430;2023-03-14T01:42:13;25.33;;;6.47;;
51618;SDS011;38518;53.164;5.430;2023-03-14T01:47:20;29.15;;;6.57;;
51618;SDS011;38518;53.164;5.430;2023-03-14T01:49:47;27.35;;;6.82;;
51618;SDS011;38518;53.164;5.430;2023-03-14T01:52:17;28.35;;;6.38;;
51618;SDS011;38518;53.164;5.430;2023-03-14T01:54:50;24.30;;;5.93;;
51618;SDS011;38518;53.164;5.430;2023-03-14T01:57:47;26.25;;;6.00;;
51618;SDS011;38518;53.164;5.430;2023-03-14T02:00:24;28.00;;;6.18;;
51618;SDS011;38518;53.164;5.430;2023-03-14T02:02:54;27.25;;;6.65;;
51618;SDS011;38518;53.164;5.430;2023-03-14T02:05:26;27.10;;;6.40;;
51618;SDS011;38518;53.164;5.430;2023-03-14T02:08:01;22.33;;;5.38;;
51618;SDS011;38518;53.164;5.430;2023-03-14T02:10:30;26.63;;;6.00;;
51618;SDS011;38518;53.164;5.430;2023-03-14T02:12:59;30.77;;;6.43;;
51618;SDS011;38518;53.164;5.430;2023-03-14T02:15:26;25.42;;;6.38;;
51618;SDS011;38518;53.164;5.430;2023-03-14T02:17:53;28.48;;;6.45;;
51618;SDS011;38518;53.164;5.430;2023-03-14T02:20:23;27.45;;;5.68;;
51618;SDS011;38518;53.164;5.430;2023-03-14T02:22:50;24.85;;;5.65;;
51618;SDS011;38518;53.164;5.430;2023-03-14T02:28:13;25.05;;;6.60;;
51618;SDS011;38518;53.164;5.430;2023-03-14T02:30:40;25.63;;;7.00;;
51618;SDS011;38518;53.164;5.430;2023-03-14T02:33:12;37.25;;;7.10;;
51618;SDS011;38518;53.164;5.430;2023-03-14T02:35:45;31.27;;;6.30;;
51618;SDS011;38518;53.164;5.430;2023-03-14T02:40:55;32.25;;;6.95;;
51618;SDS011;38518;53.164;5.430;2023-03-14T02:43:21;34.55;;;7.25;;
51618;SDS011;38518;53.164;5.430;2023-03-14T02:45:47;29.63;;;5.93;;
51618;SDS011;38518;53.164;5.430;2023-03-14T02:48:19;31.63;;;7.38;;
51618;SDS011;38518;53.164;5.430;2023-03-14T02:50:47;31.60;;;7.15;;
51618;SDS011;38518;53.164;5.430;2023-03-14T02:53:20;32.03;;;7.18;;
51618;SDS011;38518;53.164;5.430;2023-03-14T02:55:48;25.98;;;7.20;;
51618;SDS011;38518;53.164;5.430;2023-03-14T02:58:15;34.33;;;7.28;;
51618;SDS011;38518;53.164;5.430;2023-03-14T03:00:41;31.17;;;7.57;;
51618;SDS011;38518;53.164;5.430;2023-03-14T03:03:07;30.85;;;7.00;;
51618;SDS011;38518;53.164;5.430;2023-03-14T03:05:33;31.17;;;7.60;;
51618;SDS011;38518;53.164;5.430;2023-03-14T03:07:59;32.58;;;6.95;;
51618;SDS011;38518;53.164;5.430;2023-03-14T03:10:25;37.30;;;8.05;;
51618;SDS011;38518;53.164;5.430;2023-03-14T03:12:52;32.58;;;7.70;;
51618;SDS011;38518;53.164;5.430;2023-03-14T03:15:18;31.50;;;7.10;;
51618;SDS011;38518;53.164;5.430;2023-03-14T03:17:44;36.47;;;7.57;;
51618;SDS011;38518;53.164;5.430;2023-03-14T03:20:10;26.27;;;5.38;;
51618;SDS011;38518;53.164;5.430;2023-03-14T03:22:37;32.55;;;7.45;;
51618;SDS011;38518;53.164;5.430;2023-03-14T03:25:04;38.40;;;8.40;;
51618;SDS011;38518;53.164;5.430;2023-03-14T03:27:32;26.85;;;4.85;;
51618;SDS011;38518;53.164;5.430;2023-03-14T03:29:59;32.60;;;7.90;;
51618;SDS011;38518;53.164;5.430;2023-03-14T03:32:25;32.00;;;7.43;;
51618;SDS011;38518;53.164;5.430;2023-03-14T03:34:51;34.92;;;8.50;;
51618;SDS011;38518;53.164;5.430;2023-03-14T03:37:19;29.63;;;7.75;;
51618;SDS011;38518;53.164;5.430;2023-03-14T03:39:45;38.85;;;8.45;;
51618;SDS011;38518;53.164;5.430;2023-03-14T03:42:11;37.20;;;7.78;;
51618;SDS011;38518;53.164;5.430;2023-03-14T03:44:37;30.90;;;7.65;;
51618;SDS011;38518;53.164;5.430;2023-03-14T03:47:02;37.08;;;7.53;;
51618;SDS011;38518;53.164;5.430;2023-03-14T03:49:29;37.55;;;8.32;;
51618;SDS011;38518;53.164;5.430;2023-03-14T03:51:56;27.25;;;4.88;;
51618;SDS011;38518;53.164;5.430;2023-03-14T03:54:21;42.72;;;8.23;;
51618;SDS011;38518;53.164;5.430;2023-03-14T03:56:47;39.63;;;8.85;;
51618;SDS011;38518;53.164;5.430;2023-03-14T03:59:15;40.88;;;8.93;;
51618;SDS011;38518;53.164;5.430;2023-03-14T04:01:45;40.65;;;8.35;;
51618;SDS011;38518;53.164;5.430;2023-03-14T04:04:21;38.22;;;8.63;;
51618;SDS011;38518;53.164;5.430;2023-03-14T04:09:46;48.25;;;8.23;;
51618;SDS011;38518;53.164;5.430;2023-03-14T04:12:12;37.88;;;7.45;;
51618;SDS011;38518;53.164;5.430;2023-03-14T04:14:41;44.78;;;8.65;;
51618;SDS011;38518;53.164;5.430;2023-03-14T04:17:15;56.30;;;10.50;;
51618;SDS011;38518;53.164;5.430;2023-03-14T04:19:43;39.60;;;7.85;;
51618;SDS011;38518;53.164;5.430;2023-03-14T04:22:18;33.13;;;6.50;;
51618;SDS011;38518;53.164;5.430;2023-03-14T04:24:47;37.20;;;5.28;;
51618;SDS011;38518;53.164;5.430;2023-03-14T04:27:16;38.13;;;6.97;;
51618;SDS011;38518;53.164;5.430;2023-03-14T04:29:42;35.17;;;7.13;;
51618;SDS011;38518;53.164;5.430;2023-03-14T04:35:55;25.63;;;5.63;;
51618;SDS011;38518;53.164;5.430;2023-03-14T04:41:24;20.17;;;4.28;;
51618;SDS011;38518;53.164;5.430;2023-03-14T04:43:53;34.70;;;5.95;;
51618;SDS011;38518;53.164;5.430;2023-03-14T04:46:18;21.80;;;3.95;;
51618;SDS011;38518;53.164;5.430;2023-03-14T04:48:47;24.50;;;5.20;;
51618;SDS011;38518;53.164;5.430;2023-03-14T04:51:13;17.38;;;3.97;;
51618;SDS011;38518;53.164;5.430;2023-03-14T04:53:38;25.20;;;4.97;;
51618;SDS011;38518;53.164;5.430;2023-03-14T04:56:05;28.80;;;5.53;;
51618;SDS011;38518;53.164;5.430;2023-03-14T04:58:33;25.67;;;6.20;;
51618;SDS011;38518;53.164;5.430;2023-03-14T05:01:03;36.33;;;7.18;;
51618;SDS011;38518;53.164;5.430;2023-03-14T05:03:30;35.08;;;6.40;;
51618;SDS011;38518;53.164;5.430;2023-03-14T05:05:56;45.28;;;6.30;;
51618;SDS011;38518;53.164;5.430;2023-03-14T05:08:24;42.10;;;6.43;;
51618;SDS011;38518;53.164;5.430;2023-03-14T05:10:53;45.47;;;7.60;;
51618;SDS011;38518;53.164;5.430;2023-03-14T05:13:22;38.50;;;7.00;;
51618;SDS011;38518;53.164;5.430;2023-03-14T05:15:50;30.80;;;5.00;;
51618;SDS011;38518;53.164;5.430;2023-03-14T05:18:30;43.67;;;7.32;;
51618;SDS011;38518;53.164;5.430;2023-03-14T05:20:56;36.50;;;5.07;;
51618;SDS011;38518;53.164;5.430;2023-03-14T05:23:22;33.03;;;5.45;;
51618;SDS011;38518;53.164;5.430;2023-03-14T05:25:48;25.67;;;4.38;;
51618;SDS011;38518;53.164;5.430;2023-03-14T05:28:14;22.10;;;3.42;;
51618;SDS011;38518;53.164;5.430;2023-03-14T05:30:39;22.42;;;3.47;;
51618;SDS011;38518;53.164;5.430;2023-03-14T05:33:05;22.15;;;2.08;;
51618;SDS011;38518;53.164;5.430;2023-03-14T05:35:34;18.42;;;2.97;;
51618;SDS011;38518;53.164;5.430;2023-03-14T05:37:59;14.63;;;2.80;;
51618;SDS011;38518;53.164;5.430;2023-03-14T05:40:25;18.13;;;3.00;;
51618;SDS011;38518;53.164;5.430;2023-03-14T05:42:51;17.30;;;2.95;;
51618;SDS011;38518;53.164;5.430;2023-03-14T05:45:17;22.38;;;3.20;;
51618;SDS011;38518;53.164;5.430;2023-03-14T05:47:43;19.15;;;3.92;;
51618;SDS011;38518;53.164;5.430;2023-03-14T05:50:09;33.25;;;4.10;;
51618;SDS011;38518;53.164;5.430;2023-03-14T05:52:36;27.23;;;4.57;;
51618;SDS011;38518;53.164;5.430;2023-03-14T05:55:05;28.55;;;4.95;;
51618;SDS011;38518;53.164;5.430;2023-03-14T05:57:30;22.98;;;4.80;;
51618;SDS011;38518;53.164;5.430;2023-03-14T05:59:56;15.63;;;3.45;;
51618;SDS011;38518;53.164;5.430;2023-03-14T06:02:22;18.23;;;3.85;;
51618;SDS011;38518;53.164;5.430;2023-03-14T06:04:48;19.95;;;4.30;;
51618;SDS011;38518;53.164;5.430;2023-03-14T06:07:14;13.73;;;3.90;;
51618;SDS011;38518;53.164;5.430;2023-03-14T06:09:39;14.77;;;3.97;;
51618;SDS011;38518;53.164;5.430;2023-03-14T06:12:05;19.40;;;6.55;;
51618;SDS011;38518;53.164;5.430;2023-03-14T06:14:31;15.13;;;4.43;;
51618;SDS011;38518;53.164;5.430;2023-03-14T06:16:57;16.45;;;4.70;;
51618;SDS011;38518;53.164;5.430;2023-03-14T06:19:24;15.40;;;4.18;;
51618;SDS011;38518;53.164;5.430;2023-03-14T06:21:51;11.48;;;2.92;;
51618;SDS011;38518;53.164;5.430;2023-03-14T06:24:17;9.20;;;2.08;;
51618;SDS011;38518;53.164;5.430;2023-03-14T06:26:43;9.48;;;2.10;;
51618;SDS011;38518;53.164;5.430;2023-03-14T06:29:08;9.52;;;3.50;;
51618;SDS011;38518;53.164;5.430;2023-03-14T06:31:35;10.18;;;3.95;;
51618;SDS011;38518;53.164;5.430;2023-03-14T06:34:01;14.18;;;3.92;;
51618;SDS011;38518;53.164;5.430;2023-03-14T06:36:27;10.25;;;2.53;;
51618;SDS011;38518;53.164;5.430;2023-03-14T06:38:53;9.90;;;2.65;;
51618;SDS011;38518;53.164;5.430;2023-03-14T06:41:18;11.05;;;1.75;;
51618;SDS011;38518;53.164;5.430;2023-03-14T06:43:44;13.43;;;2.95;;
51618;SDS011;38518;53.164;5.430;2023-03-14T06:46:10;8.48;;;2.00;;
51618;SDS011;38518;53.164;5.430;2023-03-14T06:48:36;13.25;;;2.90;;
51618;SDS011;38518;53.164;5.430;2023-03-14T06:51:01;12.27;;;2.88;;
51618;SDS011;38518;53.164;5.430;2023-03-14T06:53:27;8.38;;;2.08;;
51618;SDS011;38518;53.164;5.430;2023-03-14T06:55:53;9.82;;;2.08;;
51618;SDS011;38518;53.164;5.430;2023-03-14T06:58:18;10.30;;;2.13;;
51618;SDS011;38518;53.164;5.430;2023-03-14T07:00:44;7.00;;;2.40;;
51618;SDS011;38518;53.164;5.430;2023-03-14T07:03:10;7.78;;;2.42;;
51618;SDS011;38518;53.164;5.430;2023-03-14T07:05:38;9.30;;;2.17;;
51618;SDS011;38518;53.164;5.430;2023-03-14T07:08:06;8.65;;;1.90;;
51618;SDS011;38518;53.164;5.430;2023-03-14T07:10:32;9.95;;;2.38;;
51618;SDS011;38518;53.164;5.430;2023-03-14T07:12:58;11.35;;;2.50;;
51618;SDS011;38518;53.164;5.430;2023-03-14T07:15:24;12.93;;;2.40;;
51618;SDS011;38518;53.164;5.430;2023-03-14T07:17:50;9.05;;;2.35;;
51618;SDS011;38518;53.164;5.430;2023-03-14T07:20:15;12.25;;;2.75;;
51618;SDS011;38518;53.164;5.430;2023-03-14T07:22:42;21.38;;;2.85;;
51618;SDS011;38518;53.164;5.430;2023-03-14T07:25:08;17.08;;;2.70;;
51618;SDS011;38518;53.164;5.430;2023-03-14T07:27:37;16.30;;;3.50;;
51618;SDS011;38518;53.164;5.430;2023-03-14T07:30:03;15.60;;;3.30;;
51618;SDS011;38518;53.164;5.430;2023-03-14T07:32:29;23.63;;;3.65;;
51618;SDS011;38518;53.164;5.430;2023-03-14T07:34:55;22.50;;;3.97;;
51618;SDS011;38518;53.164;5.430;2023-03-14T07:37:21;16.42;;;2.95;;
51618;SDS011;38518;53.164;5.430;2023-03-14T07:39:47;22.50;;;4.72;;
51618;SDS011;38518;53.164;5.430;2023-03-14T07:42:13;18.30;;;3.83;;
51618;SDS011;38518;53.164;5.430;2023-03-14T07:44:38;20.02;;;4.07;;
51618;SDS011;38518;53.164;5.430;2023-03-14T07:47:04;21.70;;;4.50;;
51618;SDS011;38518;53.164;5.430;2023-03-14T07:49:30;17.38;;;3.58;;
51618;SDS011;38518;53.164;5.430;2023-03-14T07:51:55;18.90;;;4.13;;
51618;SDS011;38518;53.164;5.430;2023-03-14T07:54:21;18.27;;;4.03;;
51618;SDS011;38518;53.164;5.430;2023-03-14T07:56:47;19.58;;;4.32;;
51618;SDS011;38518;53.164;5.430;2023-03-14T07:59:14;20.50;;;4.15;;
51618;SDS011;38518;53.164;5.430;2023-03-14T08:01:41;19.65;;;4.13;;
51618;SDS011;38518;53.164;5.430;2023-03-14T08:04:07;20.33;;;3.67;;
51618;SDS011;38518;53.164;5.430;2023-03-14T08:06:34;22.30;;;5.50;;
51618;SDS011;38518;53.164;5.430;2023-03-14T08:09:01;22.00;;;5.03;;
51618;SDS011;38518;53.164;5.430;2023-03-14T08:11:27;25.63;;;5.10;;
51618;SDS011;38518;53.164;5.430;2023-03-14T08:13:53;23.00;;;4.72;;
51618;SDS011;38518;53.164;5.430;2023-03-14T08:16:19;24.00;;;5.43;;
51618;SDS011;38518;53.164;5.430;2023-03-14T08:18:45;24.45;;;5.22;;
51618;SDS011;38518;53.164;5.430;2023-03-14T08:21:11;24.67;;;5.55;;
51618;SDS011;38518;53.164;5.430;2023-03-14T08:23:37;22.27;;;4.72;;
51618;SDS011;38518;53.164;5.430;2023-03-14T08:26:03;20.48;;;4.38;;
51618;SDS011;38518;53.164;5.430;2023-03-14T08:28:28;23.52;;;5.10;;
51618;SDS011;38518;53.164;5.430;2023-03-14T08:30:57;19.95;;;5.00;;
51618;SDS011;38518;53.164;5.430;2023-03-14T08:33:23;16.92;;;3.78;;
51618;SDS011;38518;53.164;5.430;2023-03-14T08:35:54;20.35;;;3.80;;
51618;SDS011;38518;53.164;5.430;2023-03-14T08:38:21;19.73;;;4.38;;
51618;SDS011;38518;53.164;5.430;2023-03-14T08:40:47;18.58;;;4.65;;
51618;SDS011;38518;53.164;5.430;2023-03-14T08:43:13;16.88;;;3.58;;
51618;SDS011;38518;53.164;5.430;2023-03-14T08:45:38;18.05;;;4.85;;
51618;SDS011;38518;53.164;5.430;2023-03-14T08:48:04;20.23;;;4.40;;
51618;SDS011;38518;53.164;5.430;2023-03-14T08:50:30;18.48;;;4.45;;
51618;SDS011;38518;53.164;5.430;2023-03-14T08:52:56;28.05;;;5.65;;
51618;SDS011;38518;53.164;5.430;2023-03-14T08:55:25;24.10;;;5.47;;
51618;SDS011;38518;53.164;5.430;2023-03-14T08:57:52;26.13;;;5.72;;
51618;SDS011;38518;53.164;5.430;2023-03-14T09:00:18;20.98;;;5.20;;
51618;SDS011;38518;53.164;5.430;2023-03-14T09:02:44;22.52;;;6.22;;
51618;SDS011;38518;53.164;5.430;2023-03-14T09:05:10;26.52;;;5.05;;
51618;SDS011;38518;53.164;5.430;2023-03-14T09:07:38;24.98;;;4.60;;
51618;SDS011;38518;53.164;5.430;2023-03-14T09:10:04;31.77;;;5.97;;
51618;SDS011;38518;53.164;5.430;2023-03-14T09:12:31;25.15;;;5.60;;
51618;SDS011;38518;53.164;5.430;2023-03-14T09:14:57;25.38;;;3.95;;
51618;SDS011;38518;53.164;5.430;2023-03-14T09:17:22;23.33;;;5.65;;
51618;SDS011;38518;53.164;5.430;2023-03-14T09:19:48;21.38;;;4.38;;
51618;SDS011;38518;53.164;5.430;2023-03-14T09:22:14;17.33;;;3.92;;
51618;SDS011;38518;53.164;5.430;2023-03-14T09:24:40;22.55;;;4.50;;
51618;SDS011;38518;53.164;5.430;2023-03-14T09:27:06;19.77;;;4.53;;
51618;SDS011;38518;53.164;5.430;2023-03-14T09:29:33;22.33;;;5.13;;
51618;SDS011;38518;53.164;5.430;2023-03-14T09:31:59;20.75;;;4.88;;
51618;SDS011;38518;53.164;5.430;2023-03-14T09:34:25;23.00;;;4.07;;
51618;SDS011;38518;53.164;5.430;2023-03-14T09:36:51;21.17;;;4.38;;
51618;SDS011;38518;53.164;5.430;2023-03-14T09:39:17;23.52;;;4.53;;
51618;SDS011;38518;53.164;5.430;2023-03-14T09:41:44;18.83;;;3.97;;
51618;SDS011;38518;53.164;5.430;2023-03-14T09:44:28;20.42;;;4.40;;
51618;SDS011;38518;53.164;5.430;2023-03-14T09:46:57;19.13;;;4.38;;
51618;SDS011;38518;53.164;5.430;2023-03-14T09:49:29;10.05;;;3.55;;
51618;SDS011;38518;53.164;5.430;2023-03-14T09:51:57;17.50;;;4.00;;
51618;SDS011;38518;53.164;5.430;2023-03-14T09:54:34;15.95;;;3.65;;
51618;SDS011;38518;53.164;5.430;2023-03-14T09:57:02;18.20;;;4.30;;
51618;SDS011;38518;53.164;5.430;2023-03-14T09:59:36;14.80;;;3.33;;
51618;SDS011;38518;53.164;5.430;2023-03-14T10:02:11;12.25;;;3.03;;
51618;SDS011;38518;53.164;5.430;2023-03-14T10:04:46;14.02;;;3.15;;
51618;SDS011;38518;53.164;5.430;2023-03-14T10:07:18;10.38;;;3.05;;
51618;SDS011;38518;53.164;5.430;2023-03-14T10:09:48;13.57;;;3.17;;
51618;SDS011;38518;53.164;5.430;2023-03-14T10:12:16;11.18;;;2.85;;
51618;SDS011;38518;53.164;5.430;2023-03-14T10:14:47;10.43;;;2.42;;
51618;SDS011;38518;53.164;5.430;2023-03-14T10:17:15;12.00;;;2.92;;
51618;SDS011;38518;53.164;5.430;2023-03-14T10:20:01;10.32;;;2.50;;
51618;SDS011;38518;53.164;5.430;2023-03-14T10:22:29;13.60;;;2.55;;
51618;SDS011;38518;53.164;5.430;2023-03-14T10:24:57;12.82;;;2.95;;
51618;SDS011;38518;53.164;5.430;2023-03-14T10:27:34;12.57;;;2.88;;
51618;SDS011;38518;53.164;5.430;2023-03-14T10:30:02;14.80;;;3.70;;
51618;SDS011;38518;53.164;5.430;2023-03-14T10:32:34;12.10;;;3.28;;
51618;SDS011;38518;53.164;5.430;2023-03-14T10:37:53;8.65;;;2.90;;
51618;SDS011;38518;53.164;5.430;2023-03-14T10:40:27;11.82;;;2.45;;
51618;SDS011;38518;53.164;5.430;2023-03-14T10:42:53;8.57;;;2.20;;
51618;SDS011;38518;53.164;5.430;2023-03-14T10:48:06;10.75;;;2.33;;
51618;SDS011;38518;53.164;5.430;2023-03-14T10:51:11;8.63;;;2.25;;
51618;SDS011;38518;53.164;5.430;2023-03-14T10:53:48;8.88;;;2.28;;
51618;SDS011;38518;53.164;5.430;2023-03-14T10:56:21;8.27;;;2.05;;
51618;SDS011;38518;53.164;5.430;2023-03-14T10:58:52;7.13;;;2.20;;
51618;SDS011;38518;53.164;5.430;2023-03-14T11:06:58;10.77;;;2.58;;
51618;SDS011;38518;53.164;5.430;2023-03-14T11:12:08;8.65;;;2.88;;
51618;SDS011;38518;53.164;5.430;2023-03-14T11:15:00;6.65;;;2.28;;
51618;SDS011;38518;53.164;5.430;2023-03-14T11:17:34;7.45;;;2.53;;
51618;SDS011;38518;53.164;5.430;2023-03-14T11:23:14;8.82;;;2.58;;
51618;SDS011;38518;53.164;5.430;2023-03-14T11:25:44;8.10;;;2.30;;
51618;SDS011;38518;53.164;5.430;2023-03-14T11:33:24;10.68;;;2.58;;
51618;SDS011;38518;53.164;5.430;2023-03-14T11:36:00;9.57;;;2.97;;
51618;SDS011;38518;53.164;5.430;2023-03-14T11:38:33;10.00;;;2.67;;
51618;SDS011;38518;53.164;5.430;2023-03-14T11:41:00;10.10;;;2.75;;
51618;SDS011;38518;53.164;5.430;2023-03-14T11:43:33;9.65;;;2.50;;
51618;SDS011;38518;53.164;5.430;2023-03-14T11:51:34;5.80;;;1.90;;
51618;SDS011;38518;53.164;5.430;2023-03-14T11:54:14;8.63;;;2.35;;
51618;SDS011;38518;53.164;5.430;2023-03-14T11:56:54;8.05;;;2.80;;
51618;SDS011;38518;53.164;5.430;2023-03-14T11:59:26;7.55;;;2.20;;
51618;SDS011;38518;53.164;5.430;2023-03-14T12:02:01;11.32;;;2.20;;
51618;SDS011;38518;53.164;5.430;2023-03-14T12:05:22;8.43;;;2.38;;
51618;SDS011;38518;53.164;5.430;2023-03-14T12:10:14;8.70;;;2.67;;
51618;SDS011;38518;53.164;5.430;2023-03-14T12:12:40;9.55;;;2.95;;
51618;SDS011;38518;53.164;5.430;2023-03-14T12:15:15;7.82;;;2.25;;
51618;SDS011;38518;53.164;5.430;2023-03-14T12:17:47;7.72;;;2.17;;
51618;SDS011;38518;53.164;5.430;2023-03-14T12:20:23;10.93;;;2.42;;
51618;SDS011;38518;53.164;5.430;2023-03-14T12:25:23;10.20;;;2.33;;
51618;SDS011;38518;53.164;5.430;2023-03-14T12:30:28;11.82;;;2.67;;
51618;SDS011;38518;53.164;5.430;2023-03-14T12:33:12;12.32;;;2.53;;
51618;SDS011;38518;53.164;5.430;2023-03-14T12:35:49;8.38;;;2.30;;
51618;SDS011;38518;53.164;5.430;2023-03-14T12:43:33;9.55;;;2.50;;
51618;SDS011;38518;53.164;5.430;2023-03-14T12:46:19;11.57;;;2.58;;
51618;SDS011;38518;53.164;5.430;2023-03-14T12:48:48;12.23;;;2.22;;
51618;SDS011;38518;53.164;5.430;2023-03-14T12:51:27;8.68;;;2.28;;
51618;SDS011;38518;53.164;5.430;2023-03-14T12:54:03;6.65;;;2.15;;
51618;SDS011;38518;53.164;5.430;2023-03-14T13:02:00;7.20;;;1.80;;
51618;SDS011;38518;53.164;5.430;2023-03-14T13:04:33;8.35;;;1.90;;
51618;SDS011;38518;53.164;5.430;2023-03-14T13:07:02;7.72;;;2.08;;
51618;SDS011;38518;53.164;5.430;2023-03-14T13:11:55;6.60;;;2.30;;
51618;SDS011;38518;53.164;5.430;2023-03-14T13:14:27;7.20;;;1.92;;
51618;SDS011;38518;53.164;5.430;2023-03-14T13:16:53;6.72;;;2.08;;
51618;SDS011;38518;53.164;5.430;2023-03-14T13:19:20;8.30;;;2.38;;
51618;SDS011;38518;53.164;5.430;2023-03-14T13:21:49;8.98;;;2.22;;
51618;SDS011;38518;53.164;5.430;2023-03-14T13:24:23;12.15;;;2.40;;
51618;SDS011;38518;53.164;5.430;2023-03-14T13:29:21;6.97;;;2.10;;
51618;SDS011;38518;53.164;5.430;2023-03-14T13:31:55;9.57;;;2.75;;
51618;SDS011;38518;53.164;5.430;2023-03-14T13:34:24;8.95;;;2.50;;
51618;SDS011;38518;53.164;5.430;2023-03-14T13:36:52;6.72;;;2.13;;
51618;SDS011;38518;53.164;5.430;2023-03-14T13:39:19;5.57;;;2.05;;
51618;SDS011;38518;53.164;5.430;2023-03-14T13:41:49;7.78;;;2.30;;
51618;SDS011;38518;53.164;5.430;2023-03-14T13:44:31;7.93;;;2.40;;
51618;SDS011;38518;53.164;5.430;2023-03-14T13:47:00;9.55;;;2.42;;
51618;SDS011;38518;53.164;5.430;2023-03-14T13:49:28;10.50;;;2.10;;
51618;SDS011;38518;53.164;5.430;2023-03-14T13:51:57;9.85;;;3.00;;
51618;SDS011;38518;53.164;5.430;2023-03-14T13:54:25;7.82;;;2.60;;
51618;SDS011;38518;53.164;5.430;2023-03-14T13:57:01;11.18;;;2.90;;
51618;SDS011;38518;53.164;5.430;2023-03-14T13:59:30;9.45;;;2.42;;
51618;SDS011;38518;53.164;5.430;2023-03-14T14:01:58;9.15;;;2.83;;
51618;SDS011;38518;53.164;5.430;2023-03-14T14:04:26;13.98;;;3.17;;
51618;SDS011;38518;53.164;5.430;2023-03-14T14:06:56;9.15;;;2.72;;
51618;SDS011;38518;53.164;5.430;2023-03-14T14:09:27;11.18;;;2.45;;
51618;SDS011;38518;53.164;5.430;2023-03-14T14:15:25;8.13;;;2.80;;
51618;SDS011;38518;53.164;5.430;2023-03-14T14:17:31;8.23;;;2.38;;
51618;SDS011;38518;53.164;5.430;2023-03-14T14:19:58;9.60;;;2.80;;
51618;SDS011;38518;53.164;5.430;2023-03-14T14:22:28;7.30;;;2.08;;
51618;SDS011;38518;53.164;5.430;2023-03-14T14:24:55;8.15;;;2.63;;
51618;SDS011;38518;53.164;5.430;2023-03-14T14:27:54;8.63;;;2.30;;
51618;SDS011;38518;53.164;5.430;2023-03-14T14:32:50;6.90;;;1.92;;
51618;SDS011;38518;53.164;5.430;2023-03-14T14:35:26;6.82;;;1.88;;
51618;SDS011;38518;53.164;5.430;2023-03-14T14:38:00;7.45;;;1.70;;
51618;SDS011;38518;53.164;5.430;2023-03-14T14:40:28;9.63;;;2.22;;
51618;SDS011;38518;53.164;5.430;2023-03-14T14:43:01;10.85;;;2.28;;
51618;SDS011;38518;53.164;5.430;2023-03-14T14:45:29;9.82;;;2.72;;
51618;SDS011;38518;53.164;5.430;2023-03-14T14:48:02;5.78;;;2.20;;
51618;SDS011;38518;53.164;5.430;2023-03-14T14:50:32;9.00;;;2.15;;
51618;SDS011;38518;53.164;5.430;2023-03-14T14:53:19;8.88;;;2.03;;
51618;SDS011;38518;53.164;5.430;2023-03-14T14:58:43;9.57;;;2.30;;
51618;SDS011;38518;53.164;5.430;2023-03-14T15:01:17;10.80;;;2.90;;
51618;SDS011;38518;53.164;5.430;2023-03-14T15:03:46;8.70;;;2.63;;
51618;SDS011;38518;53.164;5.430;2023-03-14T15:06:14;9.90;;;2.75;;
51618;SDS011;38518;53.164;5.430;2023-03-14T15:08:42;11.20;;;2.40;;
51618;SDS011;38518;53.164;5.430;2023-03-14T15:11:22;8.00;;;2.20;;
51618;SDS011;38518;53.164;5.430;2023-03-14T15:13:49;10.18;;;2.03;;
51618;SDS011;38518;53.164;5.430;2023-03-14T15:16:19;10.82;;;2.63;;
51618;SDS011;38518;53.164;5.430;2023-03-14T15:18:50;7.70;;;1.85;;
51618;SDS011;38518;53.164;5.430;2023-03-14T15:21:20;7.13;;;2.17;;
51618;SDS011;38518;53.164;5.430;2023-03-14T15:23:46;8.82;;;2.20;;
51618;SDS011;38518;53.164;5.430;2023-03-14T15:26:16;7.00;;;2.17;;
51618;SDS011;38518;53.164;5.430;2023-03-14T15:28:44;7.00;;;1.85;;
51618;SDS011;38518;53.164;5.430;2023-03-14T15:31:11;6.03;;;1.83;;
51618;SDS011;38518;53.164;5.430;2023-03-14T15:33:40;8.02;;;2.05;;
51618;SDS011;38518;53.164;5.430;2023-03-14T15:36:21;7.70;;;1.77;;
51618;SDS011;38518;53.164;5.430;2023-03-14T15:38:49;6.45;;;1.90;;
51618;SDS011;38518;53.164;5.430;2023-03-14T15:41:15;7.93;;;1.80;;
51618;SDS011;38518;53.164;5.430;2023-03-14T15:43:41;7.35;;;1.88;;
51618;SDS011;38518;53.164;5.430;2023-03-14T15:46:08;7.68;;;2.25;;
51618;SDS011;38518;53.164;5.430;2023-03-14T15:48:35;8.40;;;2.50;;
51618;SDS011;38518;53.164;5.430;2023-03-14T15:51:01;7.57;;;1.98;;
51618;SDS011;38518;53.164;5.430;2023-03-14T15:53:27;9.27;;;2.20;;
51618;SDS011;38518;53.164;5.430;2023-03-14T15:55:52;9.85;;;2.20;;
51618;SDS011;38518;53.164;5.430;2023-03-14T15:58:19;10.40;;;2.42;;
51618;SDS011;38518;53.164;5.430;2023-03-14T16:00:46;8.65;;;2.25;;
51618;SDS011;38518;53.164;5.430;2023-03-14T16:03:12;8.80;;;2.20;;
51618;SDS011;38518;53.164;5.430;2023-03-14T16:05:38;13.98;;;2.40;;